sensor_id;sensor_type;location;lat;lon;timestamp;temperature;humidity
31765;DHT22;18338;53.240;8.798;2022-12-31T00:02:18;12.50;99.90
31765;DHT22;18338;53.240;8.798;2022-12-31T00:04:45;12.50;99.90
31765;DHT22;18338;53.240;8.798;2022-12-31T00:07:12;12.50;99.90
31765;DHT22;18338;53.240;8.798;2022-12-31T00:12:32;12.70;99.90
31765;DHT22;18338;53.240;8.798;2022-12-31T00:14:59;12.70;99.90
31765;DHT22;18338;53.240;8.798;2022-12-31T00:17:26;12.60;99.90
31765;DHT22;18338;53.240;8.798;2022-12-31T00:19:53;12.60;99.90
31765;DHT22;18338;53.240;8.798;2022-12-31T00:22:19;12.60;99.90
31765;DHT22;18338;53.240;8.798;2022-12-31T00:24:47;12.60;99.90
31765;DHT22;18338;53.240;8.798;2022-12-31T00:27:14;12.70;99.90
31765;DHT22;18338;53.240;8.798;2022-12-31T00:29:41;12.70;99.90
31765;DHT22;18338;53.240;8.798;2022-12-31T00:32:09;12.70;99.90
31765;DHT22;18338;53.240;8.798;2022-12-31T00:34:36;12.70;99.90
31765;DHT22;18338;53.240;8.798;2022-12-31T00:37:03;12.80;99.90
31765;DHT22;18338;53.240;8.798;2022-12-31T00:39:30;12.80;99.90
31765;DHT22;18338;53.240;8.798;2022-12-31T00:41:56;12.70;99.90
31765;DHT22;18338;53.240;8.798;2022-12-31T00:44:23;12.70;99.90
31765;DHT22;18338;53.240;8.798;2022-12-31T00:46:50;12.80;99.90
31765;DHT22;18338;53.240;8.798;2022-12-31T00:49:17;12.80;99.90
31765;DHT22;18338;53.240;8.798;2022-12-31T00:51:44;12.80;99.90
31765;DHT22;18338;53.240;8.798;2022-12-31T00:54:12;12.90;99.90
31765;DHT22;18338;53.240;8.798;2022-12-31T00:56:39;12.90;99.90
31765;DHT22;18338;53.240;8.798;2022-12-31T00:59:06;13.00;99.90
31765;DHT22;18338;53.240;8.798;2022-12-31T01:01:36;13.00;99.90
31765;DHT22;18338;53.240;8.798;2022-12-31T01:04:06;12.90;99.90
31765;DHT22;18338;53.240;8.798;2022-12-31T01:06:33;12.90;99.90
31765;DHT22;18338;53.240;8.798;2022-12-31T01:09:00;12.80;99.90
31765;DHT22;18338;53.240;8.798;2022-12-31T01:11:26;12.80;99.90
31765;DHT22;18338;53.240;8.798;2022-12-31T01:13:57;12.80;99.90
31765;DHT22;18338;53.240;8.798;2022-12-31T01:16:38;12.70;99.90
31765;DHT22;18338;53.240;8.798;2022-12-31T01:19:07;12.60;99.90
31765;DHT22;18338;53.240;8.798;2022-12-31T01:21:36;12.50;99.90
31765;DHT22;18338;53.240;8.798;2022-12-31T01:24:03;12.60;99.90
31765;DHT22;18338;53.240;8.798;2022-12-31T01:26:30;12.50;99.90
31765;DHT22;18338;53.240;8.798;2022-12-31T01:28:57;12.60;99.90
31765;DHT22;18338;53.240;8.798;2022-12-31T01:31:24;12.60;99.90
31765;DHT22;18338;53.240;8.798;2022-12-31T01:33:54;12.60;99.90
31765;DHT22;18338;53.240;8.798;2022-12-31T01:36:24;12.60;99.90
31765;DHT22;18338;53.240;8.798;2022-12-31T01:38:53;12.50;99.90
31765;DHT22;18338;53.240;8.798;2022-12-31T01:41:31;12.50;99.90
31765;DHT22;18338;53.240;8.798;2022-12-31T01:46:45;12.50;99.90
31765;DHT22;18338;53.240;8.798;2022-12-31T01:49:18;12.50;99.90
31765;DHT22;18338;53.240;8.798;2022-12-31T01:51:51;12.50;99.90
31765;DHT22;18338;53.240;8.798;2022-12-31T01:54:21;12.40;99.90
31765;DHT22;18338;53.240;8.798;2022-12-31T01:56:50;12.40;99.90
31765;DHT22;18338;53.240;8.798;2022-12-31T01:59:20;12.40;99.90
31765;DHT22;18338;53.240;8.798;2022-12-31T02:01:48;12.40;99.90
31765;DHT22;18338;53.240;8.798;2022-12-31T02:04:23;12.40;99.90
31765;DHT22;18338;53.240;8.798;2022-12-31T02:07:03;12.40;99.90
31765;DHT22;18338;53.240;8.798;2022-12-31T02:09:30;12.40;99.90
31765;DHT22;18338;53.240;8.798;2022-12-31T02:11:59;12.30;99.90
31765;DHT22;18338;53.240;8.798;2022-12-31T02:14:28;12.30;99.90
31765;DHT22;18338;53.240;8.798;2022-12-31T02:17:08;12.30;99.90
31765;DHT22;18338;53.240;8.798;2022-12-31T02:26:03;12.40;99.90
31765;DHT22;18338;53.240;8.798;2022-12-31T02:31:44;12.40;99.90
31765;DHT22;18338;53.240;8.798;2022-12-31T02:34:31;12.40;99.90
31765;DHT22;18338;53.240;8.798;2022-12-31T02:37:03;12.50;99.90
31765;DHT22;18338;53.240;8.798;2022-12-31T02:39:33;12.60;99.90
31765;DHT22;18338;53.240;8.798;2022-12-31T02:42:03;12.60;99.90
31765;DHT22;18338;53.240;8.798;2022-12-31T02:44:32;12.60;99.90
31765;DHT22;18338;53.240;8.798;2022-12-31T02:49:56;12.70;99.90
31765;DHT22;18338;53.240;8.798;2022-12-31T02:53:05;12.70;99.90
31765;DHT22;18338;53.240;8.798;2022-12-31T02:56:15;12.70;99.90
31765;DHT22;18338;53.240;8.798;2022-12-31T03:01:43;12.70;99.90
31765;DHT22;18338;53.240;8.798;2022-12-31T03:04:32;12.70;99.90
31765;DHT22;18338;53.240;8.798;2022-12-31T03:07:13;12.60;99.90
31765;DHT22;18338;53.240;8.798;2022-12-31T03:09:40;12.70;99.90
31765;DHT22;18338;53.240;8.798;2022-12-31T03:12:09;12.70;99.90
31765;DHT22;18338;53.240;8.798;2022-12-31T03:14:55;12.60;99.90
31765;DHT22;18338;53.240;8.798;2022-12-31T03:17:23;12.70;99.90
31765;DHT22;18338;53.240;8.798;2022-12-31T03:19:49;12.70;99.90
31765;DHT22;18338;53.240;8.798;2022-12-31T03:22:38;12.60;99.90
31765;DHT22;18338;53.240;8.798;2022-12-31T03:27:53;12.60;99.90
31765;DHT22;18338;53.240;8.798;2022-12-31T03:30:21;12.60;99.90
31765;DHT22;18338;53.240;8.798;2022-12-31T03:32:50;12.60;99.90
31765;DHT22;18338;53.240;8.798;2022-12-31T03:35:19;12.60;99.90
31765;DHT22;18338;53.240;8.798;2022-12-31T03:37:47;12.60;99.90
31765;DHT22;18338;53.240;8.798;2022-12-31T03:40:15;12.50;99.90
31765;DHT22;18338;53.240;8.798;2022-12-31T03:42:45;12.50;99.90
31765;DHT22;18338;53.240;8.798;2022-12-31T03:45:12;12.50;99.90
31765;DHT22;18338;53.240;8.798;2022-12-31T03:47:39;12.60;99.90
31765;DHT22;18338;53.240;8.798;2022-12-31T03:50:08;12.60;99.90
31765;DHT22;18338;53.240;8.798;2022-12-31T03:52:37;12.60;99.90
31765;DHT22;18338;53.240;8.798;2022-12-31T03:55:07;12.50;99.90
31765;DHT22;18338;53.240;8.798;2022-12-31T03:57:37;12.50;99.90
31765;DHT22;18338;53.240;8.798;2022-12-31T04:00:06;12.50;99.90
31765;DHT22;18338;53.240;8.798;2022-12-31T04:02:34;12.50;99.90
31765;DHT22;18338;53.240;8.798;2022-12-31T04:05:03;12.50;99.90
31765;DHT22;18338;53.240;8.798;2022-12-31T04:07:30;12.50;99.90
31765;DHT22;18338;53.240;8.798;2022-12-31T04:09:59;12.50;99.90
31765;DHT22;18338;53.240;8.798;2022-12-31T04:12:26;12.50;99.90
31765;DHT22;18338;53.240;8.798;2022-12-31T04:14:54;12.40;99.90
31765;DHT22;18338;53.240;8.798;2022-12-31T04:17:22;12.40;99.90
31765;DHT22;18338;53.240;8.798;2022-12-31T04:19:49;12.40;99.90
31765;DHT22;18338;53.240;8.798;2022-12-31T04:22:20;12.30;99.90
31765;DHT22;18338;53.240;8.798;2022-12-31T04:24:50;12.30;99.90
31765;DHT22;18338;53.240;8.798;2022-12-31T04:27:18;12.30;99.90
31765;DHT22;18338;53.240;8.798;2022-12-31T04:29:46;12.30;99.90
31765;DHT22;18338;53.240;8.798;2022-12-31T04:32:13;12.30;99.90
31765;DHT22;18338;53.240;8.798;2022-12-31T04:34:45;12.20;99.90
31765;DHT22;18338;53.240;8.798;2022-12-31T04:37:13;12.20;99.90
31765;DHT22;18338;53.240;8.798;2022-12-31T04:39:42;12.20;99.90
31765;DHT22;18338;53.240;8.798;2022-12-31T04:42:09;12.10;99.90
31765;DHT22;18338;53.240;8.798;2022-12-31T04:44:36;12.10;99.90
31765;DHT22;18338;53.240;8.798;2022-12-31T04:47:06;12.00;99.90
31765;DHT22;18338;53.240;8.798;2022-12-31T04:49:33;12.00;99.90
31765;DHT22;18338;53.240;8.798;2022-12-31T04:52:03;12.00;99.90
31765;DHT22;18338;53.240;8.798;2022-12-31T04:54:31;12.00;99.90
31765;DHT22;18338;53.240;8.798;2022-12-31T04:56:59;12.00;99.90
31765;DHT22;18338;53.240;8.798;2022-12-31T04:59:37;12.00;99.90
31765;DHT22;18338;53.240;8.798;2022-12-31T05:02:05;11.90;99.90
31765;DHT22;18338;53.240;8.798;2022-12-31T05:04:32;11.90;99.90
31765;DHT22;18338;53.240;8.798;2022-12-31T05:06:59;12.00;99.90
31765;DHT22;18338;53.240;8.798;2022-12-31T05:09:26;11.90;99.90
31765;DHT22;18338;53.240;8.798;2022-12-31T05:11:54;11.90;99.90
31765;DHT22;18338;53.240;8.798;2022-12-31T05:14:22;11.90;99.90
31765;DHT22;18338;53.240;8.798;2022-12-31T05:16:50;11.90;99.90
31765;DHT22;18338;53.240;8.798;2022-12-31T05:19:19;11.80;99.90
31765;DHT22;18338;53.240;8.798;2022-12-31T05:21:47;11.90;99.90
31765;DHT22;18338;53.240;8.798;2022-12-31T05:24:34;11.80;99.90
31765;DHT22;18338;53.240;8.798;2022-12-31T05:27:02;11.90;99.90
31765;DHT22;18338;53.240;8.798;2022-12-31T05:29:34;11.90;99.90
31765;DHT22;18338;53.240;8.798;2022-12-31T05:32:03;11.90;99.90
31765;DHT22;18338;53.240;8.798;2022-12-31T05:34:35;11.80;99.90
31765;DHT22;18338;53.240;8.798;2022-12-31T05:37:20;11.80;99.90
31765;DHT22;18338;53.240;8.798;2022-12-31T05:39:48;11.80;99.90
31765;DHT22;18338;53.240;8.798;2022-12-31T05:42:21;11.80;99.90
31765;DHT22;18338;53.240;8.798;2022-12-31T05:44:51;11.80;99.90
31765;DHT22;18338;53.240;8.798;2022-12-31T05:47:19;11.70;99.90
31765;DHT22;18338;53.240;8.798;2022-12-31T05:49:52;11.80;99.90
31765;DHT22;18338;53.240;8.798;2022-12-31T05:52:37;11.70;99.90
31765;DHT22;18338;53.240;8.798;2022-12-31T05:55:12;11.70;99.90
31765;DHT22;18338;53.240;8.798;2022-12-31T05:57:40;11.70;99.90
31765;DHT22;18338;53.240;8.798;2022-12-31T06:00:08;11.70;99.90
31765;DHT22;18338;53.240;8.798;2022-12-31T06:02:36;11.70;99.90
31765;DHT22;18338;53.240;8.798;2022-12-31T06:05:12;11.70;99.90
31765;DHT22;18338;53.240;8.798;2022-12-31T06:07:52;11.70;99.90
31765;DHT22;18338;53.240;8.798;2022-12-31T06:10:24;11.70;99.90
31765;DHT22;18338;53.240;8.798;2022-12-31T06:12:51;11.70;99.90
31765;DHT22;18338;53.240;8.798;2022-12-31T06:15:19;11.70;99.90
31765;DHT22;18338;53.240;8.798;2022-12-31T06:17:48;11.70;99.90
31765;DHT22;18338;53.240;8.798;2022-12-31T06:20:18;11.70;99.90
31765;DHT22;18338;53.240;8.798;2022-12-31T06:22:46;11.70;99.90
31765;DHT22;18338;53.240;8.798;2022-12-31T06:25:13;11.70;99.90
31765;DHT22;18338;53.240;8.798;2022-12-31T06:27:42;11.60;99.90
31765;DHT22;18338;53.240;8.798;2022-12-31T06:30:11;11.70;99.90
31765;DHT22;18338;53.240;8.798;2022-12-31T06:32:39;11.70;99.90
31765;DHT22;18338;53.240;8.798;2022-12-31T06:35:07;11.70;99.90
31765;DHT22;18338;53.240;8.798;2022-12-31T06:37:35;11.70;99.90
31765;DHT22;18338;53.240;8.798;2022-12-31T06:40:03;11.80;99.90
31765;DHT22;18338;53.240;8.798;2022-12-31T06:42:31;11.80;99.90
31765;DHT22;18338;53.240;8.798;2022-12-31T06:44:58;11.70;99.90
31765;DHT22;18338;53.240;8.798;2022-12-31T06:47:42;11.70;99.90
31765;DHT22;18338;53.240;8.798;2022-12-31T06:50:12;11.80;99.90
31765;DHT22;18338;53.240;8.798;2022-12-31T06:52:40;11.80;99.90
31765;DHT22;18338;53.240;8.798;2022-12-31T06:55:09;11.80;99.90
31765;DHT22;18338;53.240;8.798;2022-12-31T06:57:37;11.70;99.90
31765;DHT22;18338;53.240;8.798;2022-12-31T07:00:10;11.70;99.90
31765;DHT22;18338;53.240;8.798;2022-12-31T07:06:00;11.80;99.90
31765;DHT22;18338;53.240;8.798;2022-12-31T07:09:00;11.70;99.90
31765;DHT22;18338;53.240;8.798;2022-12-31T07:14:34;11.70;99.90
31765;DHT22;18338;53.240;8.798;2022-12-31T07:17:28;11.70;99.90
31765;DHT22;18338;53.240;8.798;2022-12-31T07:20:07;11.70;99.90
31765;DHT22;18338;53.240;8.798;2022-12-31T07:22:39;11.60;99.90
31765;DHT22;18338;53.240;8.798;2022-12-31T07:25:11;11.70;99.90
31765;DHT22;18338;53.240;8.798;2022-12-31T07:30:24;11.70;99.90
31765;DHT22;18338;53.240;8.798;2022-12-31T07:33:01;11.70;99.90
31765;DHT22;18338;53.240;8.798;2022-12-31T07:38:07;11.70;99.90
31765;DHT22;18338;53.240;8.798;2022-12-31T07:49:10;11.70;99.90
31765;DHT22;18338;53.240;8.798;2022-12-31T07:51:38;11.70;99.90
31765;DHT22;18338;53.240;8.798;2022-12-31T07:54:08;11.70;99.90
31765;DHT22;18338;53.240;8.798;2022-12-31T07:56:40;11.70;99.90
31765;DHT22;18338;53.240;8.798;2022-12-31T08:07:20;11.60;99.90
31765;DHT22;18338;53.240;8.798;2022-12-31T08:10:07;11.70;99.90
31765;DHT22;18338;53.240;8.798;2022-12-31T08:12:44;11.70;99.90
31765;DHT22;18338;53.240;8.798;2022-12-31T08:15:15;11.70;99.90
31765;DHT22;18338;53.240;8.798;2022-12-31T08:17:42;11.70;99.90
31765;DHT22;18338;53.240;8.798;2022-12-31T08:20:16;11.70;99.90
31765;DHT22;18338;53.240;8.798;2022-12-31T08:22:56;11.70;99.90
31765;DHT22;18338;53.240;8.798;2022-12-31T08:28:19;11.70;99.90
31765;DHT22;18338;53.240;8.798;2022-12-31T08:31:09;11.80;99.90
31765;DHT22;18338;53.240;8.798;2022-12-31T08:36:30;11.80;99.90
31765;DHT22;18338;53.240;8.798;2022-12-31T08:39:06;11.80;99.90
31765;DHT22;18338;53.240;8.798;2022-12-31T08:41:43;11.90;99.90
31765;DHT22;18338;53.240;8.798;2022-12-31T08:44:38;11.90;99.90
31765;DHT22;18338;53.240;8.798;2022-12-31T08:47:20;11.80;99.90
31765;DHT22;18338;53.240;8.798;2022-12-31T08:49:50;11.90;99.90
31765;DHT22;18338;53.240;8.798;2022-12-31T08:52:26;11.90;99.90
31765;DHT22;18338;53.240;8.798;2022-12-31T08:54:52;12.00;99.90
31765;DHT22;18338;53.240;8.798;2022-12-31T08:57:34;12.00;99.90
31765;DHT22;18338;53.240;8.798;2022-12-31T09:00:08;12.00;99.90
31765;DHT22;18338;53.240;8.798;2022-12-31T09:08:36;12.10;99.90
31765;DHT22;18338;53.240;8.798;2022-12-31T09:11:18;12.10;99.90
31765;DHT22;18338;53.240;8.798;2022-12-31T09:19:27;12.10;99.90
31765;DHT22;18338;53.240;8.798;2022-12-31T09:21:54;12.10;99.90
31765;DHT22;18338;53.240;8.798;2022-12-31T09:24:21;12.20;99.90
31765;DHT22;18338;53.240;8.798;2022-12-31T09:37:49;12.30;99.90
31765;DHT22;18338;53.240;8.798;2022-12-31T09:43:09;12.30;99.90
31765;DHT22;18338;53.240;8.798;2022-12-31T09:57:12;12.50;99.90
31765;DHT22;18338;53.240;8.798;2022-12-31T09:59:53;12.60;99.90
31765;DHT22;18338;53.240;8.798;2022-12-31T10:08:18;12.70;99.90
31765;DHT22;18338;53.240;8.798;2022-12-31T10:10:56;12.70;99.90
31765;DHT22;18338;53.240;8.798;2022-12-31T10:16:20;12.70;99.90
31765;DHT22;18338;53.240;8.798;2022-12-31T10:24:50;12.90;99.90
31765;DHT22;18338;53.240;8.798;2022-12-31T10:38:28;13.20;99.90
31765;DHT22;18338;53.240;8.798;2022-12-31T10:41:23;13.30;99.90
31765;DHT22;18338;53.240;8.798;2022-12-31T10:44:19;13.40;99.90
31765;DHT22;18338;53.240;8.798;2022-12-31T10:49:56;13.40;99.90
31765;DHT22;18338;53.240;8.798;2022-12-31T10:52:54;13.50;99.90
31765;DHT22;18338;53.240;8.798;2022-12-31T11:01:43;13.70;99.90
31765;DHT22;18338;53.240;8.798;2022-12-31T11:04:26;13.70;99.90
31765;DHT22;18338;53.240;8.798;2022-12-31T11:07:21;13.80;99.90
31765;DHT22;18338;53.240;8.798;2022-12-31T11:21:35;14.00;99.90
31765;DHT22;18338;53.240;8.798;2022-12-31T11:32:14;14.30;99.90
31765;DHT22;18338;53.240;8.798;2022-12-31T11:40:48;14.30;99.90
31765;DHT22;18338;53.240;8.798;2022-12-31T11:43:29;14.40;99.90
31765;DHT22;18338;53.240;8.798;2022-12-31T11:46:31;14.40;99.90
31765;DHT22;18338;53.240;8.798;2022-12-31T11:51:48;14.30;99.90
31765;DHT22;18338;53.240;8.798;2022-12-31T11:57:23;14.40;99.90
31765;DHT22;18338;53.240;8.798;2022-12-31T12:00:03;14.40;99.90
31765;DHT22;18338;53.240;8.798;2022-12-31T12:02:42;14.40;99.90
31765;DHT22;18338;53.240;8.798;2022-12-31T12:05:14;14.40;99.90
31765;DHT22;18338;53.240;8.798;2022-12-31T12:07:41;14.50;99.90
31765;DHT22;18338;53.240;8.798;2022-12-31T12:10:28;14.50;99.90
31765;DHT22;18338;53.240;8.798;2022-12-31T12:13:11;14.50;99.90
31765;DHT22;18338;53.240;8.798;2022-12-31T12:15:42;14.50;99.90
31765;DHT22;18338;53.240;8.798;2022-12-31T12:18:28;14.50;99.90
31765;DHT22;18338;53.240;8.798;2022-12-31T12:21:06;14.50;99.90
31765;DHT22;18338;53.240;8.798;2022-12-31T12:23:37;14.40;99.90
31765;DHT22;18338;53.240;8.798;2022-12-31T12:26:26;14.30;99.90
31765;DHT22;18338;53.240;8.798;2022-12-31T12:28:54;14.30;99.90
31765;DHT22;18338;53.240;8.798;2022-12-31T12:31:22;14.30;99.90
31765;DHT22;18338;53.240;8.798;2022-12-31T12:33:50;14.20;99.90
31765;DHT22;18338;53.240;8.798;2022-12-31T12:36:19;14.20;99.90
31765;DHT22;18338;53.240;8.798;2022-12-31T12:39:03;14.20;99.90
31765;DHT22;18338;53.240;8.798;2022-12-31T12:41:33;14.20;99.90
31765;DHT22;18338;53.240;8.798;2022-12-31T12:44:06;14.20;99.90
31765;DHT22;18338;53.240;8.798;2022-12-31T12:46:42;14.20;99.90
31765;DHT22;18338;53.240;8.798;2022-12-31T12:49:28;14.30;99.90
31765;DHT22;18338;53.240;8.798;2022-12-31T12:54:35;14.30;99.90
31765;DHT22;18338;53.240;8.798;2022-12-31T13:19:33;14.40;99.90
31765;DHT22;18338;53.240;8.798;2022-12-31T13:22:18;14.40;99.90
31765;DHT22;18338;53.240;8.798;2022-12-31T13:27:51;14.50;99.90
31765;DHT22;18338;53.240;8.798;2022-12-31T13:30:36;14.50;99.90
31765;DHT22;18338;53.240;8.798;2022-12-31T13:33:17;14.50;99.90
31765;DHT22;18338;53.240;8.798;2022-12-31T13:35:57;14.50;99.90
31765;DHT22;18338;53.240;8.798;2022-12-31T13:38:36;14.50;99.90
31765;DHT22;18338;53.240;8.798;2022-12-31T13:41:31;14.50;99.90
31765;DHT22;18338;53.240;8.798;2022-12-31T13:49:28;14.60;99.90
31765;DHT22;18338;53.240;8.798;2022-12-31T13:52:17;14.60;99.90
31765;DHT22;18338;53.240;8.798;2022-12-31T13:55:10;14.60;99.90
31765;DHT22;18338;53.240;8.798;2022-12-31T13:57:45;14.70;99.90
31765;DHT22;18338;53.240;8.798;2022-12-31T14:00:22;14.70;99.90
31765;DHT22;18338;53.240;8.798;2022-12-31T14:03:16;14.70;99.90
31765;DHT22;18338;53.240;8.798;2022-12-31T14:05:56;14.70;99.90
31765;DHT22;18338;53.240;8.798;2022-12-31T14:08:24;14.60;99.90
31765;DHT22;18338;53.240;8.798;2022-12-31T14:13:42;14.60;99.90
31765;DHT22;18338;53.240;8.798;2022-12-31T14:16:26;14.60;99.90
31765;DHT22;18338;53.240;8.798;2022-12-31T14:19:02;14.60;99.90
31765;DHT22;18338;53.240;8.798;2022-12-31T14:21:33;14.60;99.90
31765;DHT22;18338;53.240;8.798;2022-12-31T14:27:01;14.50;99.90
31765;DHT22;18338;53.240;8.798;2022-12-31T14:29:39;14.50;99.90
31765;DHT22;18338;53.240;8.798;2022-12-31T14:35:39;14.50;99.90
31765;DHT22;18338;53.240;8.798;2022-12-31T14:46:37;14.40;99.90
31765;DHT22;18338;53.240;8.798;2022-12-31T14:54:41;14.30;99.90
31765;DHT22;18338;53.240;8.798;2022-12-31T14:57:23;14.20;99.90
31765;DHT22;18338;53.240;8.798;2022-12-31T15:00:02;14.20;99.90
31765;DHT22;18338;53.240;8.798;2022-12-31T15:02:48;14.20;99.90
31765;DHT22;18338;53.240;8.798;2022-12-31T15:05:20;14.20;99.90
31765;DHT22;18338;53.240;8.798;2022-12-31T15:15:35;14.20;99.90
31765;DHT22;18338;53.240;8.798;2022-12-31T15:18:39;14.10;99.90
31765;DHT22;18338;53.240;8.798;2022-12-31T15:21:35;14.10;99.90
31765;DHT22;18338;53.240;8.798;2022-12-31T15:24:24;14.00;99.90
31765;DHT22;18338;53.240;8.798;2022-12-31T15:26:57;14.00;99.90
31765;DHT22;18338;53.240;8.798;2022-12-31T15:29:31;13.90;99.90
31765;DHT22;18338;53.240;8.798;2022-12-31T15:32:01;13.90;99.90
31765;DHT22;18338;53.240;8.798;2022-12-31T15:34:34;13.90;99.90
31765;DHT22;18338;53.240;8.798;2022-12-31T15:37:06;13.90;99.90
31765;DHT22;18338;53.240;8.798;2022-12-31T15:39:51;13.90;99.90
31765;DHT22;18338;53.240;8.798;2022-12-31T15:42:40;13.80;99.90
31765;DHT22;18338;53.240;8.798;2022-12-31T15:45:30;13.80;99.90
31765;DHT22;18338;53.240;8.798;2022-12-31T15:47:59;13.80;99.90
31765;DHT22;18338;53.240;8.798;2022-12-31T15:50:28;13.80;99.90
31765;DHT22;18338;53.240;8.798;2022-12-31T15:52:57;13.80;99.90
31765;DHT22;18338;53.240;8.798;2022-12-31T15:55:38;13.80;99.90
31765;DHT22;18338;53.240;8.798;2022-12-31T15:58:15;13.80;99.90
31765;DHT22;18338;53.240;8.798;2022-12-31T16:03:26;13.90;99.90
31765;DHT22;18338;53.240;8.798;2022-12-31T16:06:01;14.00;99.90
31765;DHT22;18338;53.240;8.798;2022-12-31T16:08:31;14.10;99.90
31765;DHT22;18338;53.240;8.798;2022-12-31T16:10:59;14.20;99.90
31765;DHT22;18338;53.240;8.798;2022-12-31T16:13:27;14.20;99.90
31765;DHT22;18338;53.240;8.798;2022-12-31T16:19:44;14.30;99.90
31765;DHT22;18338;53.240;8.798;2022-12-31T16:22:38;14.30;99.90
31765;DHT22;18338;53.240;8.798;2022-12-31T16:25:06;14.40;99.90
31765;DHT22;18338;53.240;8.798;2022-12-31T16:27:53;14.40;99.90
31765;DHT22;18338;53.240;8.798;2022-12-31T16:30:32;14.40;99.90
31765;DHT22;18338;53.240;8.798;2022-12-31T16:33:03;14.40;99.90
31765;DHT22;18338;53.240;8.798;2022-12-31T16:35:33;14.50;99.90
31765;DHT22;18338;53.240;8.798;2022-12-31T16:38:18;14.50;99.90
31765;DHT22;18338;53.240;8.798;2022-12-31T16:41:22;14.60;99.90
31765;DHT22;18338;53.240;8.798;2022-12-31T16:43:54;14.60;99.90
31765;DHT22;18338;53.240;8.798;2022-12-31T16:46:26;14.60;99.90
31765;DHT22;18338;53.240;8.798;2022-12-31T16:49:06;14.60;99.90
31765;DHT22;18338;53.240;8.798;2022-12-31T16:51:39;14.60;99.90
31765;DHT22;18338;53.240;8.798;2022-12-31T16:54:22;14.60;99.90
31765;DHT22;18338;53.240;8.798;2022-12-31T16:56:51;14.60;99.90
31765;DHT22;18338;53.240;8.798;2022-12-31T16:59:30;14.60;99.90
31765;DHT22;18338;53.240;8.798;2022-12-31T17:02:03;14.70;99.90
31765;DHT22;18338;53.240;8.798;2022-12-31T17:04:40;14.70;99.90
31765;DHT22;18338;53.240;8.798;2022-12-31T17:12:42;14.70;99.90
31765;DHT22;18338;53.240;8.798;2022-12-31T17:15:41;14.70;99.90
31765;DHT22;18338;53.240;8.798;2022-12-31T17:18:17;14.70;99.90
31765;DHT22;18338;53.240;8.798;2022-12-31T17:20:45;14.70;99.90
31765;DHT22;18338;53.240;8.798;2022-12-31T17:23:21;14.70;99.90
31765;DHT22;18338;53.240;8.798;2022-12-31T17:25:48;14.70;99.90
31765;DHT22;18338;53.240;8.798;2022-12-31T17:28:23;14.80;99.90
31765;DHT22;18338;53.240;8.798;2022-12-31T17:30:51;14.70;99.90
31765;DHT22;18338;53.240;8.798;2022-12-31T17:35:54;14.70;99.90
31765;DHT22;18338;53.240;8.798;2022-12-31T17:43:35;14.60;99.90
31765;DHT22;18338;53.240;8.798;2022-12-31T17:46:14;14.50;99.90
31765;DHT22;18338;53.240;8.798;2022-12-31T17:48:43;14.50;99.90
31765;DHT22;18338;53.240;8.798;2022-12-31T17:51:11;14.50;99.90
31765;DHT22;18338;53.240;8.798;2022-12-31T17:53:38;14.50;99.90
31765;DHT22;18338;53.240;8.798;2022-12-31T17:56:06;14.40;99.90
31765;DHT22;18338;53.240;8.798;2022-12-31T17:58:44;14.40;99.90
31765;DHT22;18338;53.240;8.798;2022-12-31T18:01:15;14.40;99.90
31765;DHT22;18338;53.240;8.798;2022-12-31T18:03:42;14.40;99.90
31765;DHT22;18338;53.240;8.798;2022-12-31T18:06:10;14.40;99.90
31765;DHT22;18338;53.240;8.798;2022-12-31T18:08:42;14.40;99.90
31765;DHT22;18338;53.240;8.798;2022-12-31T18:11:15;14.40;99.90
31765;DHT22;18338;53.240;8.798;2022-12-31T18:13:43;14.40;99.90
31765;DHT22;18338;53.240;8.798;2022-12-31T18:16:10;14.40;99.90
31765;DHT22;18338;53.240;8.798;2022-12-31T18:18:37;14.40;99.90
31765;DHT22;18338;53.240;8.798;2022-12-31T18:21:10;14.30;99.90
31765;DHT22;18338;53.240;8.798;2022-12-31T18:23:44;14.30;99.90
31765;DHT22;18338;53.240;8.798;2022-12-31T18:26:22;14.30;99.90
31765;DHT22;18338;53.240;8.798;2022-12-31T18:28:49;14.40;99.90
31765;DHT22;18338;53.240;8.798;2022-12-31T18:31:27;14.40;99.90
31765;DHT22;18338;53.240;8.798;2022-12-31T18:33:57;14.50;99.90
31765;DHT22;18338;53.240;8.798;2022-12-31T18:36:25;14.50;99.90
31765;DHT22;18338;53.240;8.798;2022-12-31T18:38:53;14.60;99.90
31765;DHT22;18338;53.240;8.798;2022-12-31T18:41:22;14.60;99.90
31765;DHT22;18338;53.240;8.798;2022-12-31T18:43:50;14.70;99.90
31765;DHT22;18338;53.240;8.798;2022-12-31T18:46:23;14.80;99.90
31765;DHT22;18338;53.240;8.798;2022-12-31T18:48:50;14.80;99.90
31765;DHT22;18338;53.240;8.798;2022-12-31T18:51:20;14.70;99.90
31765;DHT22;18338;53.240;8.798;2022-12-31T18:53:56;14.60;99.90
31765;DHT22;18338;53.240;8.798;2022-12-31T18:56:23;14.70;99.90
31765;DHT22;18338;53.240;8.798;2022-12-31T18:58:50;14.70;99.90
31765;DHT22;18338;53.240;8.798;2022-12-31T19:01:26;14.70;99.90
31765;DHT22;18338;53.240;8.798;2022-12-31T19:04:03;14.60;99.90
31765;DHT22;18338;53.240;8.798;2022-12-31T19:06:35;14.50;99.90
31765;DHT22;18338;53.240;8.798;2022-12-31T19:09:01;14.40;99.90
31765;DHT22;18338;53.240;8.798;2022-12-31T19:11:43;14.30;99.90
31765;DHT22;18338;53.240;8.798;2022-12-31T19:14:21;14.20;99.90
31765;DHT22;18338;53.240;8.798;2022-12-31T19:16:50;14.20;99.90
31765;DHT22;18338;53.240;8.798;2022-12-31T19:19:19;14.10;99.90
31765;DHT22;18338;53.240;8.798;2022-12-31T19:21:47;14.20;99.90
31765;DHT22;18338;53.240;8.798;2022-12-31T19:24:22;14.20;99.90
31765;DHT22;18338;53.240;8.798;2022-12-31T19:26:49;14.20;99.90
31765;DHT22;18338;53.240;8.798;2022-12-31T19:29:23;14.10;99.90
31765;DHT22;18338;53.240;8.798;2022-12-31T19:31:50;14.10;99.90
31765;DHT22;18338;53.240;8.798;2022-12-31T19:34:20;14.00;99.90
31765;DHT22;18338;53.240;8.798;2022-12-31T19:36:46;14.10;99.90
31765;DHT22;18338;53.240;8.798;2022-12-31T19:39:19;14.20;99.90
31765;DHT22;18338;53.240;8.798;2022-12-31T19:41:47;14.20;99.90
31765;DHT22;18338;53.240;8.798;2022-12-31T19:44:24;14.20;99.90
31765;DHT22;18338;53.240;8.798;2022-12-31T19:46:50;14.30;99.90
31765;DHT22;18338;53.240;8.798;2022-12-31T19:49:20;14.40;99.90
31765;DHT22;18338;53.240;8.798;2022-12-31T19:54:59;14.50;99.90
31765;DHT22;18338;53.240;8.798;2022-12-31T19:57:26;14.50;99.90
31765;DHT22;18338;53.240;8.798;2022-12-31T20:00:23;14.70;99.90
31765;DHT22;18338;53.240;8.798;2022-12-31T20:02:50;14.70;99.90
31765;DHT22;18338;53.240;8.798;2022-12-31T20:05:17;14.70;99.90
31765;DHT22;18338;53.240;8.798;2022-12-31T20:07:45;14.80;99.90
31765;DHT22;18338;53.240;8.798;2022-12-31T20:10:12;14.80;99.90
31765;DHT22;18338;53.240;8.798;2022-12-31T20:12:42;14.80;99.90
31765;DHT22;18338;53.240;8.798;2022-12-31T20:15:10;14.90;99.90
31765;DHT22;18338;53.240;8.798;2022-12-31T20:17:37;14.90;99.90